createdAt,value
2018-09-08T00:01:28.240Z,10.56
2018-09-08T00:04:03.019Z,10.51
2018-09-08T00:06:37.698Z,10.44
2018-09-08T00:09:12.215Z,10.35
2018-09-08T00:11:46.912Z,10.33
2018-09-08T00:14:21.500Z,10.37
2018-09-08T00:17:01.559Z,10.36
2018-09-08T00:19:41.397Z,10.32
2018-09-08T00:22:21.248Z,10.31
2018-09-08T00:25:01.193Z,10.24
2018-09-08T00:27:41.527Z,10.28
2018-09-08T00:30:16.537Z,10.28
2018-09-08T00:32:51.083Z,10.32
2018-09-08T00:35:25.503Z,10.35
2018-09-08T00:37:59.989Z,10.38
2018-09-08T00:40:34.729Z,10.33
2018-09-08T00:43:09.144Z,10.35
2018-09-08T00:45:43.724Z,10.35
2018-09-08T00:48:18.170Z,10.35
2018-09-08T00:50:53.184Z,10.34
2018-09-08T00:53:27.979Z,10.28
2018-09-08T00:56:02.778Z,10.26
2018-09-08T00:58:37.270Z,10.19
2018-09-08T01:01:12.026Z,10.19
2018-09-08T01:03:46.614Z,10.21
2018-09-08T01:06:21.274Z,10.25
2018-09-08T01:08:55.881Z,10.26
2018-09-08T01:11:30.438Z,10.23
2018-09-08T01:14:05.322Z,10.21
2018-09-08T01:16:40.000Z,10.12
2018-09-08T01:19:15.870Z,10.12
2018-09-08T01:21:50.574Z,10.12
2018-09-08T01:24:25.206Z,10.09
2018-09-08T01:26:59.728Z,10.11
2018-09-08T01:29:34.853Z,10.08
2018-09-08T01:32:09.719Z,10.02
2018-09-08T01:34:44.342Z,10.01
2018-09-08T01:37:18.932Z,9.97
2018-09-08T01:39:53.617Z,9.95
2018-09-08T01:42:28.199Z,9.95
2018-09-08T01:45:02.777Z,9.98
2018-09-08T01:47:37.367Z,9.95
2018-09-08T01:50:12.085Z,9.97
2018-09-08T01:52:46.636Z,9.97
2018-09-08T01:55:21.256Z,9.98
2018-09-08T01:57:55.768Z,10.01
2018-09-08T02:00:30.411Z,10.00
2018-09-08T02:03:05.157Z,9.96
2018-09-08T02:05:39.918Z,9.93
2018-09-08T02:08:14.976Z,9.90
2018-09-08T02:10:49.912Z,9.92
2018-09-08T02:13:24.279Z,9.90
2018-09-08T02:15:58.815Z,9.89
2018-09-08T02:18:33.420Z,9.90
2018-09-08T02:21:07.979Z,9.85
2018-09-08T02:23:47.769Z,9.80
2018-09-08T02:26:22.346Z,9.79
2018-09-08T02:28:56.993Z,9.84
2018-09-08T02:31:31.508Z,9.88
2018-09-08T02:34:06.193Z,9.88
2018-09-08T02:36:40.628Z,9.86
2018-09-08T02:39:15.049Z,9.81
2018-09-08T02:41:49.629Z,9.89
2018-09-08T02:44:24.186Z,9.89
2018-09-08T02:46:58.868Z,9.91
2018-09-08T02:50:42.267Z,9.98
2018-09-08T02:53:15.707Z,9.91
2018-09-08T02:55:49.120Z,9.95
2018-09-08T02:58:22.608Z,9.93
2018-09-08T03:00:56.165Z,9.85
2018-09-08T03:03:29.657Z,9.75
2018-09-08T03:06:03.151Z,9.74
2018-09-08T03:08:36.624Z,9.80
2018-09-08T03:11:10.160Z,9.88
2018-09-08T03:13:43.618Z,9.94
2018-09-08T03:16:17.037Z,9.99
2018-09-08T03:18:50.353Z,10.04
2018-09-08T03:21:23.900Z,10.09
2018-09-08T03:23:57.353Z,10.12
2018-09-08T03:26:30.960Z,10.21
2018-09-08T03:29:04.441Z,10.22
2018-09-08T03:31:38.759Z,10.18
2018-09-08T03:34:12.376Z,10.12
2018-09-08T03:36:45.958Z,10.00
2018-09-08T03:39:19.626Z,9.92
2018-09-08T03:41:53.117Z,9.89
2018-09-08T03:44:26.613Z,9.83
2018-09-08T03:47:00.081Z,9.79
2018-09-08T03:49:33.540Z,9.84
2018-09-08T03:52:06.981Z,9.83
2018-09-08T03:54:40.488Z,9.80
2018-09-08T03:57:13.989Z,9.81
2018-09-08T03:59:47.590Z,9.88
2018-09-08T04:02:21.138Z,9.88
2018-09-08T04:04:55.741Z,9.94
2018-09-08T04:07:30.594Z,9.96
2018-09-08T04:10:05.448Z,10.02
2018-09-08T04:12:40.124Z,10.11
2018-09-08T04:15:14.861Z,10.13
2018-09-08T04:17:49.563Z,10.14
2018-09-08T04:20:24.177Z,10.09
2018-09-08T04:22:58.632Z,10.05
2018-09-08T04:25:33.242Z,9.93
2018-09-08T04:28:07.761Z,9.91
2018-09-08T04:30:42.577Z,9.90
2018-09-08T04:33:16.912Z,9.82
2018-09-08T04:35:51.413Z,9.75
2018-09-08T04:38:25.979Z,9.68
2018-09-08T04:41:00.784Z,9.58
2018-09-08T04:43:35.402Z,9.53
2018-09-08T04:46:10.109Z,9.50
2018-09-08T04:48:44.776Z,9.52
2018-09-08T04:51:19.366Z,9.55
2018-09-08T04:53:53.988Z,9.50
2018-09-08T04:56:28.752Z,9.47
2018-09-08T04:59:03.337Z,9.38
2018-09-08T05:01:37.967Z,9.22
2018-09-08T05:04:29.003Z,9.24
2018-09-08T05:07:03.741Z,9.24
2018-09-08T05:09:38.180Z,9.39
2018-09-08T05:12:13.380Z,9.43
2018-09-08T05:14:47.816Z,9.35
2018-09-08T05:17:22.832Z,9.42
2018-09-08T05:19:57.466Z,9.47
2018-09-08T05:22:32.104Z,9.55
2018-09-08T05:25:06.505Z,9.53
2018-09-08T05:27:41.045Z,9.55
2018-09-08T05:30:15.764Z,9.61
2018-09-08T05:32:50.242Z,9.69
2018-09-08T05:35:24.905Z,9.79
2018-09-08T05:37:59.682Z,9.84
2018-09-08T05:40:34.345Z,9.90
2018-09-08T05:43:09.076Z,9.89
2018-09-08T05:45:43.767Z,9.94
2018-09-08T05:48:18.294Z,10.00
2018-09-08T05:50:52.773Z,10.00
2018-09-08T05:53:27.418Z,9.99
2018-09-08T05:56:02.188Z,10.05
2018-09-08T05:58:37.297Z,10.16
2018-09-08T06:01:11.989Z,10.76
2018-09-08T06:03:46.658Z,12.22
2018-09-08T06:06:21.293Z,13.24
2018-09-08T06:08:55.880Z,14.83
2018-09-08T06:11:30.509Z,14.30
2018-09-08T06:14:05.010Z,15.18
2018-09-08T06:16:40.297Z,17.63
2018-09-08T06:19:15.521Z,18.77
2018-09-08T06:21:50.167Z,20.10
2018-09-08T06:24:24.848Z,20.33
2018-09-08T06:26:59.389Z,20.54
2018-09-08T06:29:34.073Z,20.94
2018-09-08T06:32:08.836Z,20.49
2018-09-08T06:34:43.369Z,21.18
2018-09-08T06:37:17.985Z,22.79
2018-09-08T06:39:52.609Z,23.48
2018-09-08T06:42:27.257Z,22.59
2018-09-08T06:45:01.947Z,19.56
2018-09-08T06:47:36.486Z,16.39
2018-09-08T06:50:11.189Z,15.22
2018-09-08T06:52:45.810Z,15.12
2018-09-08T06:55:20.414Z,17.24
2018-09-08T06:57:55.397Z,21.01
2018-09-08T07:00:30.142Z,22.41
2018-09-08T07:03:04.762Z,22.96
2018-09-08T07:05:39.344Z,24.30
2018-09-08T07:08:14.150Z,25.61
2018-09-08T07:10:48.629Z,25.45
2018-09-08T07:13:23.229Z,24.33
2018-09-08T07:15:57.662Z,23.83
2018-09-08T07:18:32.246Z,25.86
2018-09-08T07:21:06.809Z,27.44
2018-09-08T07:23:41.353Z,26.65
2018-09-08T07:26:15.877Z,23.51
2018-09-08T07:28:50.664Z,23.87
2018-09-08T07:31:25.228Z,26.01
2018-09-08T07:33:59.737Z,24.25
2018-09-08T07:36:34.316Z,26.67
2018-09-08T07:39:10.291Z,24.50
2018-09-08T07:41:45.013Z,22.62
2018-09-08T07:44:19.753Z,24.32
2018-09-08T07:46:54.229Z,21.96
2018-09-08T07:49:28.764Z,20.56
2018-09-08T07:52:03.637Z,18.57
2018-09-08T07:54:38.247Z,19.98
2018-09-08T07:57:12.862Z,20.70
2018-09-08T07:59:47.597Z,19.15
2018-09-08T08:02:22.201Z,19.77
2018-09-08T08:04:56.732Z,17.99
2018-09-08T08:07:31.268Z,18.28
2018-09-08T08:10:05.912Z,17.03
2018-09-08T08:12:40.555Z,16.76
2018-09-08T08:15:15.534Z,16.93
2018-09-08T08:17:51.027Z,16.88
2018-09-08T08:20:25.926Z,15.69
2018-09-08T08:23:00.871Z,15.52
2018-09-08T08:25:35.509Z,15.68
2018-09-08T08:28:10.414Z,15.99
2018-09-08T08:30:45.896Z,16.63
2018-09-08T08:33:20.618Z,17.13
2018-09-08T08:35:55.278Z,17.53
2018-09-08T08:38:29.962Z,17.09
2018-09-08T08:41:04.590Z,16.51
2018-09-08T08:43:39.212Z,15.94
2018-09-08T08:46:13.794Z,16.45
2018-09-08T08:48:48.528Z,15.60
2018-09-08T08:51:34.537Z,15.98
2018-09-08T08:54:21.819Z,16.04
2018-09-08T08:56:56.279Z,15.51
2018-09-08T08:59:30.818Z,16.03
2018-09-08T09:02:05.463Z,16.14
2018-09-08T09:04:40.316Z,16.09
2018-09-08T09:07:16.529Z,16.82
2018-09-08T09:09:50.617Z,16.64
2018-09-08T09:12:25.329Z,17.15
2018-09-08T09:14:59.835Z,18.16
2018-09-08T09:17:34.561Z,18.36
2018-09-08T09:20:20.481Z,17.83
2018-09-08T09:23:06.670Z,18.17
2018-09-08T09:25:41.529Z,18.12
2018-09-08T09:28:16.424Z,18.26
2018-09-08T09:30:51.206Z,18.17
2018-09-08T09:33:25.937Z,17.65
2018-09-08T09:36:00.634Z,17.42
2018-09-08T09:38:35.093Z,17.80
2018-09-08T09:41:09.858Z,17.74
2018-09-08T09:43:44.404Z,18.39
2018-09-08T09:46:19.068Z,17.60
2018-09-08T09:48:53.649Z,17.70
2018-09-08T09:51:28.303Z,18.36
2018-09-08T09:54:02.748Z,19.16
2018-09-08T09:56:37.272Z,19.09
2018-09-08T09:59:11.874Z,18.46
2018-09-08T10:01:51.606Z,18.22
2018-09-08T10:04:26.247Z,18.19
2018-09-08T10:07:00.940Z,18.41
2018-09-08T10:09:35.761Z,18.86
2018-09-08T10:12:10.561Z,18.01
2018-09-08T10:14:45.788Z,18.10
2018-09-08T10:17:25.286Z,18.81
2018-09-08T10:20:00.190Z,18.10
2018-09-08T10:22:34.810Z,18.18
2018-09-08T10:25:12.511Z,18.63
2018-09-08T10:27:47.874Z,19.14
2018-09-08T10:30:22.547Z,19.09
2018-09-08T10:32:57.164Z,18.58
2018-09-08T10:35:31.749Z,18.86
2018-09-08T10:38:06.968Z,19.27
2018-09-08T10:40:41.523Z,19.26
2018-09-08T10:43:16.041Z,19.31
2018-09-08T10:45:50.470Z,19.73
2018-09-08T10:48:24.977Z,20.03
2018-09-08T10:51:09.480Z,18.82
2018-09-08T10:53:43.997Z,18.89
2018-09-08T10:56:18.822Z,18.62
2018-09-08T10:58:53.984Z,19.14
2018-09-08T11:01:29.745Z,19.57
2018-09-08T11:04:04.360Z,19.18
2018-09-08T11:06:39.141Z,18.89
2018-09-08T11:09:13.670Z,19.66
2018-09-08T11:11:48.415Z,22.01
2018-09-08T11:14:23.243Z,21.12
2018-09-08T11:16:57.777Z,20.27
2018-09-08T11:19:32.280Z,19.42
2018-09-08T11:22:06.912Z,18.78
2018-09-08T11:24:41.626Z,19.14
2018-09-08T11:27:16.869Z,18.25
2018-09-08T11:29:51.654Z,18.67
2018-09-08T11:32:26.598Z,19.20
2018-09-08T11:35:00.961Z,19.10
2018-09-08T11:37:36.283Z,19.14
2018-09-08T11:40:10.821Z,19.46
2018-09-08T11:42:45.317Z,19.70
2018-09-08T11:45:19.877Z,18.91
2018-09-08T11:47:54.302Z,18.96
2018-09-08T11:50:29.039Z,18.81
2018-09-08T11:53:03.714Z,18.88
2018-09-08T11:55:38.397Z,19.67
2018-09-08T11:58:12.916Z,18.97
2018-09-08T12:00:50.326Z,19.59
2018-09-08T12:03:25.673Z,19.34
2018-09-08T12:06:00.577Z,18.95
2018-09-08T12:08:35.114Z,18.74
2018-09-08T12:11:10.187Z,18.84
2018-09-08T12:13:44.808Z,18.71
2018-09-08T12:16:19.386Z,19.17
2018-09-08T12:18:54.085Z,18.93
2018-09-08T12:21:29.035Z,19.15
2018-09-08T12:24:03.568Z,19.68
2018-09-08T12:26:38.228Z,19.66
2018-09-08T12:29:13.261Z,20.03
2018-09-08T12:31:47.824Z,20.02
2018-09-08T12:34:22.290Z,19.37
2018-09-08T12:36:57.014Z,19.46
2018-09-08T12:39:31.980Z,19.39
2018-09-08T12:42:06.745Z,19.52
2018-09-08T12:44:41.276Z,19.47
2018-09-08T12:47:15.782Z,19.36
2018-09-08T12:49:50.964Z,19.30
2018-09-08T12:52:25.625Z,19.16
2018-09-08T12:55:00.282Z,19.40
2018-09-08T12:57:34.797Z,19.30
2018-09-08T13:00:09.329Z,19.27
2018-09-08T13:02:44.046Z,19.27
2018-09-08T13:05:18.673Z,19.24
2018-09-08T13:07:53.165Z,19.06
2018-09-08T13:10:28.005Z,18.74
2018-09-08T13:13:02.553Z,19.02
2018-09-08T13:15:37.593Z,19.11
2018-09-08T13:18:12.149Z,19.04
2018-09-08T13:20:47.104Z,19.28
2018-09-08T13:23:22.101Z,19.63
2018-09-08T13:25:56.816Z,19.90
2018-09-08T13:28:31.568Z,20.29
2018-09-08T13:31:06.229Z,20.36
2018-09-08T13:33:40.853Z,20.60
2018-09-08T13:36:15.387Z,20.38
2018-09-08T13:38:50.014Z,20.48
2018-09-08T13:41:24.481Z,19.90
2018-09-08T13:43:59.688Z,19.97
2018-09-08T13:46:34.156Z,20.00
2018-09-08T13:49:10.908Z,19.80
2018-09-08T13:51:45.721Z,19.71
2018-09-08T13:54:20.296Z,20.50
2018-09-08T13:56:54.849Z,20.24
2018-09-08T13:59:29.494Z,20.71
2018-09-08T14:02:04.437Z,20.78
2018-09-08T14:04:39.140Z,21.07
2018-09-08T14:07:13.709Z,21.01
2018-09-08T14:09:48.201Z,20.12
2018-09-08T14:12:22.780Z,20.22
2018-09-08T14:14:57.248Z,20.07
2018-09-08T14:17:31.689Z,19.97
2018-09-08T14:20:06.685Z,19.52
2018-09-08T14:22:41.256Z,19.69
2018-09-08T14:25:15.760Z,19.52
2018-09-08T14:27:50.354Z,19.80
2018-09-08T14:30:25.019Z,20.07
2018-09-08T14:32:59.893Z,20.39
2018-09-08T14:35:34.451Z,20.63
2018-09-08T14:38:08.977Z,20.77
2018-09-08T14:40:43.606Z,20.78
2018-09-08T14:43:18.102Z,20.90
2018-09-08T14:45:52.532Z,20.54
2018-09-08T14:48:26.958Z,20.44
2018-09-08T14:51:01.521Z,20.68
2018-09-08T14:53:36.052Z,20.55
2018-09-08T14:56:10.605Z,20.38
2018-09-08T14:58:45.275Z,20.21
2018-09-08T15:01:20.149Z,20.62
2018-09-08T15:03:54.834Z,20.71
2018-09-08T15:06:29.252Z,20.94
2018-09-08T15:09:05.569Z,20.93
2018-09-08T15:11:40.078Z,20.37
2018-09-08T15:14:14.962Z,20.44
2018-09-08T15:16:49.444Z,20.63
2018-09-08T15:19:24.042Z,21.18
2018-09-08T15:21:58.813Z,20.70
2018-09-08T15:24:33.507Z,20.76
2018-09-08T15:27:08.001Z,20.53
2018-09-08T15:29:42.642Z,20.26
2018-09-08T15:32:17.224Z,19.82
2018-09-08T15:34:51.877Z,20.10
2018-09-08T15:37:26.621Z,20.19
2018-09-08T15:40:01.172Z,20.17
2018-09-08T15:42:35.739Z,19.89
2018-09-08T15:45:10.404Z,19.57
2018-09-08T15:47:45.113Z,19.22
2018-09-08T15:50:19.604Z,19.39
2018-09-08T15:52:54.628Z,19.33
2018-09-08T15:55:29.220Z,19.33
2018-09-08T15:58:03.970Z,19.22
2018-09-08T16:00:38.606Z,19.13
2018-09-08T16:03:13.205Z,18.88
2018-09-08T16:05:47.844Z,18.94
2018-09-08T16:08:22.599Z,18.86
2018-09-08T16:10:57.202Z,18.86
2018-09-08T16:13:31.902Z,18.85
2018-09-08T16:16:06.490Z,18.85
2018-09-08T16:18:41.150Z,18.60
2018-09-08T16:21:15.813Z,18.56
2018-09-08T16:23:50.375Z,18.59
2018-09-08T16:26:24.908Z,18.54
2018-09-08T16:28:59.413Z,18.49
2018-09-08T16:31:33.988Z,18.41
2018-09-08T16:34:08.890Z,18.34
2018-09-08T16:40:02.306Z,18.13
2018-09-08T16:42:36.847Z,18.09
2018-09-08T16:45:11.664Z,18.00
2018-09-08T16:47:46.306Z,17.92
2018-09-08T16:50:20.843Z,17.81
2018-09-08T16:52:55.430Z,17.80
2018-09-08T16:55:30.241Z,17.64
2018-09-08T16:58:05.036Z,17.60
2018-09-08T17:00:39.480Z,17.57
2018-09-08T17:03:14.021Z,17.53
2018-09-08T17:05:48.561Z,17.48
2018-09-08T17:08:23.300Z,17.42
2018-09-08T17:10:57.996Z,17.18
2018-09-08T17:13:33.193Z,17.10
2018-09-08T17:16:07.722Z,17.00
2018-09-08T17:18:42.205Z,16.90
2018-09-08T17:21:16.813Z,16.85
2018-09-08T17:23:51.594Z,16.71
2018-09-08T17:26:26.195Z,16.67
2018-09-08T17:29:00.762Z,16.68
2018-09-08T17:31:35.248Z,16.67
2018-09-08T17:34:17.082Z,16.65
2018-09-08T17:36:51.637Z,16.56
2018-09-08T17:39:26.145Z,16.52
2018-09-08T17:42:00.845Z,16.42
2018-09-08T17:44:35.405Z,16.36
2018-09-08T17:47:10.405Z,16.25
2018-09-08T17:49:45.049Z,16.15
2018-09-08T17:52:19.523Z,16.09
2018-09-08T17:54:54.265Z,16.01
2018-09-08T17:57:28.972Z,15.94
2018-09-08T18:00:03.504Z,15.91
2018-09-08T18:02:38.473Z,15.88
2018-09-08T18:05:13.273Z,15.81
2018-09-08T18:07:47.885Z,15.80
2018-09-08T18:10:22.402Z,15.79
2018-09-08T18:12:57.449Z,15.77
2018-09-08T18:15:31.845Z,15.71
2018-09-08T18:18:06.366Z,15.65
2018-09-08T18:20:40.980Z,15.64
2018-09-08T18:23:15.657Z,15.63
2018-09-08T18:25:50.237Z,15.61
2018-09-08T18:28:24.826Z,15.60
2018-09-08T18:30:59.449Z,15.56
2018-09-08T18:33:34.141Z,15.56
2018-09-08T18:36:09.951Z,15.56
2018-09-08T18:38:44.709Z,15.57
2018-09-08T18:41:19.274Z,15.57
2018-09-08T18:43:53.738Z,15.57
2018-09-08T18:46:28.341Z,15.58
2018-09-08T18:49:02.925Z,15.60
2018-09-08T18:51:37.981Z,15.58
2018-09-08T18:54:12.841Z,15.60
2018-09-08T18:56:47.508Z,15.64
2018-09-08T18:59:22.197Z,15.61
2018-09-08T19:01:57.086Z,15.56
2018-09-08T19:04:31.621Z,15.59
2018-09-08T19:07:06.280Z,15.62
2018-09-08T19:09:40.676Z,15.58
2018-09-08T19:12:15.125Z,15.50
2018-09-08T19:14:55.040Z,15.50
2018-09-08T19:17:29.729Z,15.44
2018-09-08T19:20:09.556Z,15.46
2018-09-08T19:22:44.198Z,15.46
2018-09-08T19:25:18.764Z,15.42
2018-09-08T19:27:53.445Z,15.37
2018-09-08T19:30:28.441Z,15.34
2018-09-08T19:33:03.052Z,15.30
2018-09-08T19:35:38.933Z,15.31
2018-09-08T19:38:13.558Z,15.29
2018-09-08T19:40:48.848Z,15.28
2018-09-08T19:43:23.465Z,15.27
2018-09-08T19:45:58.129Z,15.29
2018-09-08T19:48:32.843Z,15.31
2018-09-08T19:51:07.561Z,15.36
2018-09-08T19:53:47.511Z,15.40
2018-09-08T19:56:26.317Z,15.51
2018-09-08T19:59:01.301Z,15.61
2018-09-08T20:01:36.077Z,15.67
2018-09-08T20:04:10.729Z,15.60
2018-09-08T20:06:45.229Z,15.49
2018-09-08T20:09:19.913Z,15.39
2018-09-08T20:11:54.457Z,15.32
2018-09-08T20:14:29.174Z,15.25
2018-09-08T20:17:03.641Z,15.17
2018-09-08T20:19:52.148Z,15.06
2018-09-08T20:22:26.633Z,14.99
2018-09-08T20:25:01.198Z,14.89
2018-09-08T20:27:35.769Z,14.85
2018-09-08T20:30:10.516Z,14.78
2018-09-08T20:32:45.101Z,14.75
2018-09-08T20:35:19.727Z,14.71
2018-09-08T20:37:54.361Z,14.68
2018-09-08T20:40:28.936Z,14.70
2018-09-08T20:43:03.369Z,14.63
2018-09-08T20:45:38.014Z,14.60
2018-09-08T20:48:12.656Z,14.55
2018-09-08T20:50:47.213Z,14.54
2018-09-08T20:53:21.797Z,14.57
2018-09-08T20:55:56.293Z,14.57
2018-09-08T20:58:30.885Z,14.57
2018-09-08T21:01:05.345Z,14.62
2018-09-08T21:03:40.094Z,14.60
2018-09-08T21:06:14.705Z,14.54
2018-09-08T21:08:49.732Z,14.57
2018-09-08T21:11:24.354Z,14.54
2018-09-08T21:13:58.841Z,14.56
2018-09-08T21:16:33.310Z,14.50
2018-09-08T21:19:07.893Z,14.47
2018-09-08T21:21:42.549Z,14.52
2018-09-08T21:24:17.485Z,14.57
2018-09-08T21:26:52.121Z,14.60
2018-09-08T21:29:26.730Z,14.62
2018-09-08T21:32:01.345Z,14.85
2018-09-08T21:34:36.017Z,14.89
2018-09-08T21:37:10.656Z,14.99
2018-09-08T21:39:45.125Z,15.00
2018-09-08T21:42:19.794Z,15.07
2018-09-08T21:44:54.269Z,15.12
2018-09-08T21:47:28.875Z,15.16
2018-09-08T21:50:03.395Z,15.11
2018-09-08T21:52:38.062Z,15.00
2018-09-08T21:55:12.788Z,14.87
2018-09-08T21:57:47.408Z,14.73
2018-09-08T22:00:22.130Z,14.64
2018-09-08T22:02:56.657Z,14.56
2018-09-08T22:05:31.133Z,14.56
2018-09-08T22:08:05.778Z,14.61
2018-09-08T22:10:40.440Z,14.73
2018-09-08T22:13:15.210Z,14.86
2018-09-08T22:15:50.054Z,14.91
2018-09-08T22:18:24.630Z,14.97
2018-09-08T22:20:59.157Z,14.89
2018-09-08T22:23:33.711Z,14.77
2018-09-08T22:26:08.368Z,14.67
2018-09-08T22:28:43.016Z,14.67
2018-09-08T22:31:17.492Z,14.60
2018-09-08T22:33:52.102Z,14.59
2018-09-08T22:36:27.101Z,14.55
2018-09-08T22:39:01.615Z,14.50
2018-09-08T22:41:36.140Z,14.47
2018-09-08T22:44:10.738Z,14.35
2018-09-08T22:46:45.344Z,14.24
2018-09-08T22:49:20.093Z,14.22
2018-09-08T22:51:54.668Z,14.22
2018-09-08T22:54:29.118Z,14.38
2018-09-08T22:57:03.802Z,14.40
2018-09-08T22:59:38.517Z,14.45
2018-09-08T23:02:13.001Z,14.37
2018-09-08T23:04:47.584Z,14.36
2018-09-08T23:07:22.173Z,14.38
2018-09-08T23:09:56.708Z,14.45
2018-09-08T23:12:31.435Z,14.42
2018-09-08T23:15:06.616Z,14.46
2018-09-08T23:17:41.273Z,14.46
2018-09-08T23:20:15.842Z,14.44
2018-09-08T23:22:50.542Z,14.38
2018-09-08T23:25:25.529Z,14.40
2018-09-08T23:28:00.112Z,14.46
2018-09-08T23:30:34.590Z,14.42
2018-09-08T23:33:09.125Z,14.44
2018-09-08T23:35:43.741Z,14.50
2018-09-08T23:38:18.358Z,14.45
2018-09-08T23:40:53.055Z,14.42
2018-09-08T23:43:27.561Z,14.44
2018-09-08T23:46:02.009Z,14.47
2018-09-08T23:48:36.645Z,14.46
2018-09-08T23:51:11.373Z,14.49
2018-09-08T23:53:45.944Z,14.41
2018-09-08T23:56:20.630Z,14.37
2018-09-08T23:58:55.213Z,14.36
